sensor_id;sensor_type;location;lat;lon;timestamp;pressure;altitude;pressure_sealevel;temperature;humidity
21547;BME280;41275;51.912;4.388;2023-04-08T00:03:19;102290.28;;;16.12;50.90
21547;BME280;41275;51.912;4.388;2023-04-08T00:08:41;102287.25;;;16.08;50.89
21547;BME280;41275;51.912;4.388;2023-04-08T00:14:02;102293.16;;;16.10;50.77
21547;BME280;41275;51.912;4.388;2023-04-08T00:19:24;102288.28;;;16.07;50.86
21547;BME280;41275;51.912;4.388;2023-04-08T00:24:45;102294.44;;;16.08;50.69
21547;BME280;41275;51.912;4.388;2023-04-08T00:30:06;102293.75;;;16.12;50.81
21547;BME280;41275;51.912;4.388;2023-04-08T00:35:28;102289.09;;;16.08;50.91
21547;BME280;41275;51.912;4.388;2023-04-08T00:40:49;102291.78;;;16.08;50.78
21547;BME280;41275;51.912;4.388;2023-04-08T00:46:10;102300.00;;;16.06;51.06
21547;BME280;41275;51.912;4.388;2023-04-08T00:51:32;102296.31;;;16.07;51.20
21547;BME280;41275;51.912;4.388;2023-04-08T00:56:56;102291.97;;;16.06;50.90
21547;BME280;41275;51.912;4.388;2023-04-08T01:02:35;102300.72;;;16.13;50.88
21547;BME280;41275;51.912;4.388;2023-04-08T01:08:01;102304.75;;;16.04;51.07
21547;BME280;41275;51.912;4.388;2023-04-08T01:13:28;102301.94;;;15.99;51.51
21547;BME280;41275;51.912;4.388;2023-04-08T01:18:52;102304.78;;;16.16;51.55
21547;BME280;41275;51.912;4.388;2023-04-08T01:24:22;102303.66;;;16.24;51.17
21547;BME280;41275;51.912;4.388;2023-04-08T01:29:47;102300.03;;;16.18;51.22
21547;BME280;41275;51.912;4.388;2023-04-08T01:35:09;102303.66;;;16.24;51.11
21547;BME280;41275;51.912;4.388;2023-04-08T01:40:31;102306.34;;;16.24;51.41
21547;BME280;41275;51.912;4.388;2023-04-08T01:45:53;102307.34;;;16.23;51.57
21547;BME280;41275;51.912;4.388;2023-04-08T01:51:18;102312.84;;;16.28;51.29
21547;BME280;41275;51.912;4.388;2023-04-08T01:56:40;102301.88;;;16.17;51.21
21547;BME280;41275;51.912;4.388;2023-04-08T02:02:04;102308.84;;;16.18;51.30
21547;BME280;41275;51.912;4.388;2023-04-08T02:07:27;102306.66;;;16.15;51.39
21547;BME280;41275;51.912;4.388;2023-04-08T02:12:48;102302.56;;;16.13;51.65
21547;BME280;41275;51.912;4.388;2023-04-08T02:18:21;102307.31;;;16.11;51.33
21547;BME280;41275;51.912;4.388;2023-04-08T02:23:47;102313.50;;;16.11;51.25
21547;BME280;41275;51.912;4.388;2023-04-08T02:29:12;102309.53;;;16.14;51.31
21547;BME280;41275;51.912;4.388;2023-04-08T02:34:34;102311.31;;;16.20;51.28
21547;BME280;41275;51.912;4.388;2023-04-08T02:39:56;102318.19;;;16.28;51.56
21547;BME280;41275;51.912;4.388;2023-04-08T02:45:17;102319.13;;;16.33;51.31
21547;BME280;41275;51.912;4.388;2023-04-08T02:50:39;102314.06;;;16.13;51.16
21547;BME280;41275;51.912;4.388;2023-04-08T02:56:01;102325.19;;;15.80;51.34
21547;BME280;41275;51.912;4.388;2023-04-08T03:01:22;102329.19;;;15.71;52.18
21547;BME280;41275;51.912;4.388;2023-04-08T03:06:43;102325.91;;;15.87;51.83
21547;BME280;41275;51.912;4.388;2023-04-08T03:12:04;102330.13;;;15.95;52.15
21547;BME280;41275;51.912;4.388;2023-04-08T03:17:26;102331.47;;;16.04;51.85
21547;BME280;41275;51.912;4.388;2023-04-08T03:22:47;102335.88;;;16.10;51.64
21547;BME280;41275;51.912;4.388;2023-04-08T03:28:08;102345.19;;;16.08;52.20
21547;BME280;41275;51.912;4.388;2023-04-08T03:33:29;102348.28;;;16.05;52.12
21547;BME280;41275;51.912;4.388;2023-04-08T03:38:51;102356.06;;;16.06;51.89
21547;BME280;41275;51.912;4.388;2023-04-08T03:44:12;102361.19;;;16.08;52.13
21547;BME280;41275;51.912;4.388;2023-04-08T03:49:33;102360.72;;;16.11;52.11
21547;BME280;41275;51.912;4.388;2023-04-08T03:54:54;102361.56;;;16.11;51.95
21547;BME280;41275;51.912;4.388;2023-04-08T04:00:16;102364.25;;;16.11;52.05
21547;BME280;41275;51.912;4.388;2023-04-08T04:05:37;102364.81;;;16.13;52.17
21547;BME280;41275;51.912;4.388;2023-04-08T04:10:59;102368.53;;;16.12;51.88
21547;BME280;41275;51.912;4.388;2023-04-08T04:16:20;102372.25;;;16.11;52.38
21547;BME280;41275;51.912;4.388;2023-04-08T04:21:41;102366.75;;;16.06;52.38
21547;BME280;41275;51.912;4.388;2023-04-08T04:27:02;102381.38;;;16.04;51.91
21547;BME280;41275;51.912;4.388;2023-04-08T04:32:23;102373.38;;;16.04;52.47
21547;BME280;41275;51.912;4.388;2023-04-08T04:37:45;102382.94;;;15.93;52.38
21547;BME280;41275;51.912;4.388;2023-04-08T04:43:07;102386.56;;;15.62;52.21
21547;BME280;41275;51.912;4.388;2023-04-08T04:48:28;102393.41;;;15.33;52.68
21547;BME280;41275;51.912;4.388;2023-04-08T04:53:49;102386.69;;;15.05;52.80
21547;BME280;41275;51.912;4.388;2023-04-08T04:59:11;102392.09;;;14.92;53.62
21547;BME280;41275;51.912;4.388;2023-04-08T05:04:32;102403.81;;;14.91;53.93
21547;BME280;41275;51.912;4.388;2023-04-08T05:09:53;102409.22;;;15.09;53.97
21547;BME280;41275;51.912;4.388;2023-04-08T05:15:14;102406.91;;;15.38;53.94
21547;BME280;41275;51.912;4.388;2023-04-08T05:20:35;102409.22;;;15.53;53.35
21547;BME280;41275;51.912;4.388;2023-04-08T05:25:57;102410.19;;;15.58;53.33
21547;BME280;41275;51.912;4.388;2023-04-08T05:31:19;102417.97;;;15.60;53.16
21547;BME280;41275;51.912;4.388;2023-04-08T05:36:40;102418.97;;;15.65;53.14
21547;BME280;41275;51.912;4.388;2023-04-08T05:42:01;102427.38;;;15.69;53.55
21547;BME280;41275;51.912;4.388;2023-04-08T05:47:23;102437.75;;;15.77;53.26
21547;BME280;41275;51.912;4.388;2023-04-08T05:52:44;102444.03;;;15.83;52.74
21547;BME280;41275;51.912;4.388;2023-04-08T05:58:06;102450.28;;;15.95;52.73
21547;BME280;41275;51.912;4.388;2023-04-08T06:03:27;102446.50;;;15.84;52.75
21547;BME280;41275;51.912;4.388;2023-04-08T06:08:50;102457.31;;;15.89;52.72
21547;BME280;41275;51.912;4.388;2023-04-08T06:14:11;102463.63;;;15.95;52.45
21547;BME280;41275;51.912;4.388;2023-04-08T06:19:33;102468.66;;;16.03;52.25
21547;BME280;41275;51.912;4.388;2023-04-08T06:24:54;102477.50;;;16.22;51.87
21547;BME280;41275;51.912;4.388;2023-04-08T06:30:16;102482.75;;;16.29;51.57
21547;BME280;41275;51.912;4.388;2023-04-08T06:35:37;102503.09;;;16.30;51.04
21547;BME280;41275;51.912;4.388;2023-04-08T06:41:05;102503.53;;;16.27;50.92
21547;BME280;41275;51.912;4.388;2023-04-08T06:46:27;102506.19;;;16.27;50.56
21547;BME280;41275;51.912;4.388;2023-04-08T06:51:48;102507.31;;;16.19;50.78
21547;BME280;41275;51.912;4.388;2023-04-08T06:57:09;102521.50;;;16.38;50.20
21547;BME280;41275;51.912;4.388;2023-04-08T07:02:31;102519.72;;;16.32;50.67
21547;BME280;41275;51.912;4.388;2023-04-08T07:07:52;102531.75;;;16.41;49.83
21547;BME280;41275;51.912;4.388;2023-04-08T07:13:14;102533.38;;;16.24;50.41
21547;BME280;41275;51.912;4.388;2023-04-08T07:18:35;102533.69;;;16.15;50.32
21547;BME280;41275;51.912;4.388;2023-04-08T07:23:56;102544.97;;;16.36;50.03
21547;BME280;41275;51.912;4.388;2023-04-08T07:29:18;102545.63;;;16.31;50.25
21547;BME280;41275;51.912;4.388;2023-04-08T07:34:39;102547.47;;;16.31;50.53
21547;BME280;41275;51.912;4.388;2023-04-08T07:40:00;102556.22;;;16.38;50.25
21547;BME280;41275;51.912;4.388;2023-04-08T07:45:21;102557.88;;;16.39;50.10
21547;BME280;41275;51.912;4.388;2023-04-08T07:50:42;102557.94;;;16.32;50.37
21547;BME280;41275;51.912;4.388;2023-04-08T07:56:13;102567.00;;;16.50;50.44
21547;BME280;41275;51.912;4.388;2023-04-08T08:01:34;102561.88;;;16.66;50.25
21547;BME280;41275;51.912;4.388;2023-04-08T08:06:56;102564.09;;;16.88;50.03
21547;BME280;41275;51.912;4.388;2023-04-08T08:12:17;102572.56;;;17.15;49.78
21547;BME280;41275;51.912;4.388;2023-04-08T08:17:38;102568.34;;;17.37;49.40
21547;BME280;41275;51.912;4.388;2023-04-08T08:22:59;102575.41;;;17.85;48.79
21547;BME280;41275;51.912;4.388;2023-04-08T08:28:20;102586.22;;;17.90;48.29
21547;BME280;41275;51.912;4.388;2023-04-08T08:33:42;102584.25;;;17.98;47.76
21547;BME280;41275;51.912;4.388;2023-04-08T08:39:03;102590.53;;;18.27;47.48
21547;BME280;41275;51.912;4.388;2023-04-08T08:44:24;102589.75;;;18.67;46.93
21547;BME280;41275;51.912;4.388;2023-04-08T08:49:46;102593.41;;;19.01;45.80
21547;BME280;41275;51.912;4.388;2023-04-08T08:55:07;102599.75;;;19.40;45.37
21547;BME280;41275;51.912;4.388;2023-04-08T09:00:36;102588.78;;;19.92;44.40
21547;BME280;41275;51.912;4.388;2023-04-08T09:06:00;102593.38;;;20.30;43.42
21547;BME280;41275;51.912;4.388;2023-04-08T09:11:21;102593.34;;;20.08;43.15
21547;BME280;41275;51.912;4.388;2023-04-08T09:16:43;102590.16;;;20.50;42.67
21547;BME280;41275;51.912;4.388;2023-04-08T09:22:06;102590.25;;;20.55;42.29
21547;BME280;41275;51.912;4.388;2023-04-08T09:27:33;102595.50;;;20.28;42.21
21547;BME280;41275;51.912;4.388;2023-04-08T09:32:56;102603.59;;;20.50;41.81
21547;BME280;41275;51.912;4.388;2023-04-08T09:38:17;102593.41;;;20.14;41.78
21547;BME280;41275;51.912;4.388;2023-04-08T09:43:50;102598.00;;;19.79;41.72
21547;BME280;41275;51.912;4.388;2023-04-08T09:49:28;102598.47;;;19.43;42.29
21547;BME280;41275;51.912;4.388;2023-04-08T09:55:01;102601.38;;;19.41;42.70
21547;BME280;41275;51.912;4.388;2023-04-08T10:00:29;102604.75;;;19.20;42.97
21547;BME280;41275;51.912;4.388;2023-04-08T10:05:53;102591.69;;;19.23;43.22
21547;BME280;41275;51.912;4.388;2023-04-08T10:11:14;102594.38;;;19.40;42.79
21547;BME280;41275;51.912;4.388;2023-04-08T10:16:36;102586.72;;;19.49;42.94
21547;BME280;41275;51.912;4.388;2023-04-08T10:21:58;102590.91;;;19.90;42.03
21547;BME280;41275;51.912;4.388;2023-04-08T10:27:38;102590.56;;;20.20;41.23
21547;BME280;41275;51.912;4.388;2023-04-08T10:33:01;102593.84;;;20.27;40.77
21547;BME280;41275;51.912;4.388;2023-04-08T10:38:29;102594.97;;;20.31;40.16
21547;BME280;41275;51.912;4.388;2023-04-08T10:43:50;102587.94;;;20.25;39.80
21547;BME280;41275;51.912;4.388;2023-04-08T10:49:12;102594.59;;;20.62;39.34
21547;BME280;41275;51.912;4.388;2023-04-08T10:54:33;102590.56;;;20.86;39.33
21547;BME280;41275;51.912;4.388;2023-04-08T10:59:54;102597.38;;;20.94;38.14
21547;BME280;41275;51.912;4.388;2023-04-08T11:05:16;102589.31;;;21.21;37.02
21547;BME280;41275;51.912;4.388;2023-04-08T11:10:37;102592.91;;;21.31;36.67
21547;BME280;41275;51.912;4.388;2023-04-08T11:15:59;102595.81;;;21.52;36.63
21547;BME280;41275;51.912;4.388;2023-04-08T11:21:22;102586.44;;;21.60;36.04
21547;BME280;41275;51.912;4.388;2023-04-08T11:26:43;102582.34;;;21.52;35.24
21547;BME280;41275;51.912;4.388;2023-04-08T11:32:05;102582.78;;;21.76;34.72
21547;BME280;41275;51.912;4.388;2023-04-08T11:37:40;102586.09;;;21.88;32.52
21547;BME280;41275;51.912;4.388;2023-04-08T11:43:12;102573.44;;;21.89;31.65
21547;BME280;41275;51.912;4.388;2023-04-08T11:48:35;102579.41;;;21.91;31.04
21547;BME280;41275;51.912;4.388;2023-04-08T11:53:56;102581.00;;;21.92;31.02
21547;BME280;41275;51.912;4.388;2023-04-08T11:59:17;102589.00;;;22.19;30.59
21547;BME280;41275;51.912;4.388;2023-04-08T12:04:39;102585.00;;;22.26;29.97
21547;BME280;41275;51.912;4.388;2023-04-08T12:10:00;102581.03;;;22.39;29.30
21547;BME280;41275;51.912;4.388;2023-04-08T12:15:21;102577.88;;;22.63;28.98
21547;BME280;41275;51.912;4.388;2023-04-08T12:20:42;102582.78;;;22.76;28.99
21547;BME280;41275;51.912;4.388;2023-04-08T12:26:04;102580.91;;;22.87;28.29
21547;BME280;41275;51.912;4.388;2023-04-08T12:31:25;102567.88;;;24.86;25.89
21547;BME280;41275;51.912;4.388;2023-04-08T12:36:47;102573.66;;;26.30;24.40
21547;BME280;41275;51.912;4.388;2023-04-08T12:42:09;102562.31;;;27.55;22.90
21547;BME280;41275;51.912;4.388;2023-04-08T12:47:31;102554.91;;;28.66;22.06
21547;BME280;41275;51.912;4.388;2023-04-08T12:52:53;102563.47;;;28.73;21.50
21547;BME280;41275;51.912;4.388;2023-04-08T12:58:14;102550.75;;;28.46;21.14
21547;BME280;41275;51.912;4.388;2023-04-08T13:03:36;102565.09;;;28.97;19.80
21547;BME280;41275;51.912;4.388;2023-04-08T13:08:58;102561.84;;;29.62;19.30
21547;BME280;41275;51.912;4.388;2023-04-08T13:14:19;102567.19;;;29.67;18.36
21547;BME280;41275;51.912;4.388;2023-04-08T13:19:40;102558.66;;;29.38;17.97
21547;BME280;41275;51.912;4.388;2023-04-08T13:25:02;102556.19;;;29.90;17.58
21547;BME280;41275;51.912;4.388;2023-04-08T13:30:27;102544.28;;;30.43;17.61
21547;BME280;41275;51.912;4.388;2023-04-08T13:35:48;102551.88;;;30.89;17.63
21547;BME280;41275;51.912;4.388;2023-04-08T13:41:10;102542.56;;;31.84;16.60
21547;BME280;41275;51.912;4.388;2023-04-08T13:46:31;102546.16;;;31.76;16.42
21547;BME280;41275;51.912;4.388;2023-04-08T13:51:52;102545.81;;;32.16;15.77
21547;BME280;41275;51.912;4.388;2023-04-08T13:57:14;102537.75;;;32.40;15.64
21547;BME280;41275;51.912;4.388;2023-04-08T14:02:35;102527.16;;;32.09;16.12
21547;BME280;41275;51.912;4.388;2023-04-08T14:07:56;102525.31;;;32.64;15.24
21547;BME280;41275;51.912;4.388;2023-04-08T14:13:17;102524.25;;;32.89;15.11
21547;BME280;41275;51.912;4.388;2023-04-08T14:18:39;102530.19;;;32.91;15.31
21547;BME280;41275;51.912;4.388;2023-04-08T14:24:00;102534.19;;;33.27;15.61
21547;BME280;41275;51.912;4.388;2023-04-08T14:29:21;102528.53;;;33.81;14.73
21547;BME280;41275;51.912;4.388;2023-04-08T14:34:43;102520.72;;;33.34;15.07
21547;BME280;41275;51.912;4.388;2023-04-08T14:40:05;102527.69;;;33.32;15.38
21547;BME280;41275;51.912;4.388;2023-04-08T14:45:26;102519.09;;;32.88;15.51
21547;BME280;41275;51.912;4.388;2023-04-08T14:50:47;102513.16;;;32.86;15.20
21547;BME280;41275;51.912;4.388;2023-04-08T14:56:09;102513.44;;;32.72;15.25
21547;BME280;41275;51.912;4.388;2023-04-08T15:01:30;102518.72;;;32.98;15.01
21547;BME280;41275;51.912;4.388;2023-04-08T15:06:53;102516.75;;;32.23;15.00
21547;BME280;41275;51.912;4.388;2023-04-08T15:12:14;102523.72;;;31.83;14.95
21547;BME280;41275;51.912;4.388;2023-04-08T15:17:35;102511.28;;;32.44;14.83
21547;BME280;41275;51.912;4.388;2023-04-08T15:22:57;102510.34;;;33.52;13.96
21547;BME280;41275;51.912;4.388;2023-04-08T15:28:18;102507.03;;;33.71;13.62
21547;BME280;41275;51.912;4.388;2023-04-08T15:33:39;102507.06;;;31.67;14.86
21547;BME280;41275;51.912;4.388;2023-04-08T15:39:02;102511.13;;;29.30;16.47
21547;BME280;41275;51.912;4.388;2023-04-08T15:44:24;102511.69;;;27.87;16.96
21547;BME280;41275;51.912;4.388;2023-04-08T15:49:45;102508.31;;;26.64;18.55
21547;BME280;41275;51.912;4.388;2023-04-08T15:55:07;102506.34;;;25.60;19.48
21547;BME280;41275;51.912;4.388;2023-04-08T16:00:28;102513.47;;;24.88;20.47
21547;BME280;41275;51.912;4.388;2023-04-08T16:05:49;102513.34;;;24.09;21.54
21547;BME280;41275;51.912;4.388;2023-04-08T16:11:10;102508.84;;;23.64;22.40
21547;BME280;41275;51.912;4.388;2023-04-08T16:16:32;102511.56;;;23.43;23.02
21547;BME280;41275;51.912;4.388;2023-04-08T16:21:53;102504.03;;;23.05;23.55
21547;BME280;41275;51.912;4.388;2023-04-08T16:27:14;102504.03;;;22.99;23.84
21547;BME280;41275;51.912;4.388;2023-04-08T16:32:35;102508.59;;;22.94;23.73
21547;BME280;41275;51.912;4.388;2023-04-08T16:37:56;102509.69;;;22.93;23.72
21547;BME280;41275;51.912;4.388;2023-04-08T16:43:18;102515.59;;;22.85;24.12
21547;BME280;41275;51.912;4.388;2023-04-08T16:48:39;102518.78;;;22.61;24.54
21547;BME280;41275;51.912;4.388;2023-04-08T16:54:01;102523.03;;;22.42;25.04
21547;BME280;41275;51.912;4.388;2023-04-08T16:59:23;102521.88;;;22.22;25.71
21547;BME280;41275;51.912;4.388;2023-04-08T17:04:48;102526.31;;;21.96;25.87
21547;BME280;41275;51.912;4.388;2023-04-08T17:10:09;102525.97;;;21.77;26.63
21547;BME280;41275;51.912;4.388;2023-04-08T17:15:30;102523.47;;;21.66;26.49
21547;BME280;41275;51.912;4.388;2023-04-08T17:20:51;102524.22;;;21.61;26.55
21547;BME280;41275;51.912;4.388;2023-04-08T17:26:13;102515.63;;;21.32;27.18
21547;BME280;41275;51.912;4.388;2023-04-08T17:31:34;102525.06;;;21.02;27.89
21547;BME280;41275;51.912;4.388;2023-04-08T17:36:56;102530.78;;;20.79;28.47
21547;BME280;41275;51.912;4.388;2023-04-08T17:42:18;102532.69;;;20.56;28.92
21547;BME280;41275;51.912;4.388;2023-04-08T17:47:42;102532.38;;;20.53;29.51
21547;BME280;41275;51.912;4.388;2023-04-08T17:53:03;102533.66;;;20.28;30.05
21547;BME280;41275;51.912;4.388;2023-04-08T17:58:24;102533.97;;;20.10;30.51
21547;BME280;41275;51.912;4.388;2023-04-08T18:03:46;102530.09;;;19.84;31.02
21547;BME280;41275;51.912;4.388;2023-04-08T18:09:08;102545.91;;;19.64;31.24
21547;BME280;41275;51.912;4.388;2023-04-08T18:14:29;102542.16;;;19.48;31.74
21547;BME280;41275;51.912;4.388;2023-04-08T18:19:50;102545.56;;;19.26;31.85
21547;BME280;41275;51.912;4.388;2023-04-08T18:25:12;102546.44;;;19.15;32.11
21547;BME280;41275;51.912;4.388;2023-04-08T18:30:33;102560.16;;;19.02;31.75
21547;BME280;41275;51.912;4.388;2023-04-08T18:35:55;102554.41;;;18.81;31.27
21547;BME280;41275;51.912;4.388;2023-04-08T18:41:17;102566.22;;;18.69;31.20
21547;BME280;41275;51.912;4.388;2023-04-08T18:46:38;102574.63;;;18.60;31.57
21547;BME280;41275;51.912;4.388;2023-04-08T18:51:59;102577.81;;;18.46;31.05
21547;BME280;41275;51.912;4.388;2023-04-08T18:57:20;102579.22;;;18.36;30.49
21547;BME280;41275;51.912;4.388;2023-04-08T19:02:42;102581.69;;;18.26;30.55
21547;BME280;41275;51.912;4.388;2023-04-08T19:08:04;102582.75;;;18.13;30.76
21547;BME280;41275;51.912;4.388;2023-04-08T19:13:25;102589.50;;;18.04;30.97
21547;BME280;41275;51.912;4.388;2023-04-08T19:18:46;102597.06;;;17.96;30.55
21547;BME280;41275;51.912;4.388;2023-04-08T19:24:08;102588.09;;;17.90;31.23
21547;BME280;41275;51.912;4.388;2023-04-08T19:29:29;102599.16;;;17.82;32.01
21547;BME280;41275;51.912;4.388;2023-04-08T19:34:52;102604.97;;;17.79;33.62
21547;BME280;41275;51.912;4.388;2023-04-08T19:40:13;102606.25;;;17.88;34.03
21547;BME280;41275;51.912;4.388;2023-04-08T19:45:35;102604.28;;;17.95;34.90
21547;BME280;41275;51.912;4.388;2023-04-08T19:50:56;102605.09;;;17.96;35.67
21547;BME280;41275;51.912;4.388;2023-04-08T19:56:17;102598.56;;;17.91;36.47
21547;BME280;41275;51.912;4.388;2023-04-08T20:01:38;102607.44;;;17.92;37.00
21547;BME280;41275;51.912;4.388;2023-04-08T20:07:00;102606.84;;;17.90;37.74
21547;BME280;41275;51.912;4.388;2023-04-08T20:12:23;102608.63;;;17.96;38.44
21547;BME280;41275;51.912;4.388;2023-04-08T20:17:44;102604.28;;;17.95;38.50
21547;BME280;41275;51.912;4.388;2023-04-08T20:23:06;102614.88;;;17.90;38.81
21547;BME280;41275;51.912;4.388;2023-04-08T20:28:27;102615.59;;;17.85;39.11
21547;BME280;41275;51.912;4.388;2023-04-08T20:33:48;102613.38;;;17.82;38.89
21547;BME280;41275;51.912;4.388;2023-04-08T20:39:09;102619.19;;;17.91;39.32
21547;BME280;41275;51.912;4.388;2023-04-08T20:44:31;102611.59;;;17.88;39.52
21547;BME280;41275;51.912;4.388;2023-04-08T20:49:52;102614.19;;;17.83;39.84
21547;BME280;41275;51.912;4.388;2023-04-08T20:55:14;102611.13;;;17.79;39.95
21547;BME280;41275;51.912;4.388;2023-04-08T21:00:35;102613.31;;;17.71;40.50
21547;BME280;41275;51.912;4.388;2023-04-08T21:05:56;102611.19;;;17.49;40.85
21547;BME280;41275;51.912;4.388;2023-04-08T21:11:18;102611.59;;;17.34;41.62
21547;BME280;41275;51.912;4.388;2023-04-08T21:16:39;102611.72;;;17.09;42.02
21547;BME280;41275;51.912;4.388;2023-04-08T21:22:00;102613.53;;;16.97;42.57
21547;BME280;41275;51.912;4.388;2023-04-08T21:27:22;102613.03;;;16.88;43.29
21547;BME280;41275;51.912;4.388;2023-04-08T21:32:43;102609.72;;;16.75;43.67
21547;BME280;41275;51.912;4.388;2023-04-08T21:38:04;102608.34;;;16.65;44.31
21547;BME280;41275;51.912;4.388;2023-04-08T21:43:26;102609.44;;;16.58;44.44
21547;BME280;41275;51.912;4.388;2023-04-08T21:48:47;102605.88;;;16.45;44.54
21547;BME280;41275;51.912;4.388;2023-04-08T21:54:09;102609.66;;;16.38;45.27
21547;BME280;41275;51.912;4.388;2023-04-08T21:59:30;102621.25;;;16.32;45.42
21547;BME280;41275;51.912;4.388;2023-04-08T22:04:51;102604.09;;;16.21;45.94
21547;BME280;41275;51.912;4.388;2023-04-08T22:10:12;102614.38;;;16.17;46.04
21547;BME280;41275;51.912;4.388;2023-04-08T22:15:33;102618.97;;;16.10;46.34
21547;BME280;41275;51.912;4.388;2023-04-08T22:20:55;102612.06;;;16.03;46.51
21547;BME280;41275;51.912;4.388;2023-04-08T22:26:17;102618.47;;;15.95;46.63
21547;BME280;41275;51.912;4.388;2023-04-08T22:31:38;102617.13;;;15.86;46.80
21547;BME280;41275;51.912;4.388;2023-04-08T22:36:59;102619.66;;;15.81;47.01
21547;BME280;41275;51.912;4.388;2023-04-08T22:42:21;102607.81;;;15.70;47.32
21547;BME280;41275;51.912;4.388;2023-04-08T22:47:42;102612.75;;;15.66;47.39
21547;BME280;41275;51.912;4.388;2023-04-08T22:53:03;102614.44;;;15.61;47.59
21547;BME280;41275;51.912;4.388;2023-04-08T22:58:25;102610.56;;;15.57;47.57
21547;BME280;41275;51.912;4.388;2023-04-08T23:03:46;102604.00;;;15.53;48.06
21547;BME280;41275;51.912;4.388;2023-04-08T23:09:07;102592.56;;;15.45;47.76
21547;BME280;41275;51.912;4.388;2023-04-08T23:14:28;102595.88;;;15.41;48.10
21547;BME280;41275;51.912;4.388;2023-04-08T23:19:50;102592.00;;;15.37;48.41
21547;BME280;41275;51.912;4.388;2023-04-08T23:25:11;102590.81;;;15.33;48.87
21547;BME280;41275;51.912;4.388;2023-04-08T23:30:32;102580.81;;;15.21;48.88
21547;BME280;41275;51.912;4.388;2023-04-08T23:35:53;102577.53;;;15.19;49.04
21547;BME280;41275;51.912;4.388;2023-04-08T23:41:15;102564.63;;;15.16;49.55
21547;BME280;41275;51.912;4.388;2023-04-08T23:46:36;102564.03;;;15.14;49.59
21547;BME280;41275;51.912;4.388;2023-04-08T23:51:57;102564.69;;;15.10;49.82
21547;BME280;41275;51.912;4.388;2023-04-08T23:57:18;102556.88;;;15.08;50.18
